createdAt,value
2019-01-21T00:00:46.193Z,0
2019-01-21T00:01:48.500Z,0
2019-01-21T00:02:50.515Z,0
2019-01-21T00:03:52.533Z,0
2019-01-21T00:04:54.548Z,0
2019-01-21T00:05:56.948Z,0
2019-01-21T00:06:58.961Z,0
2019-01-21T00:08:01.266Z,0
2019-01-21T00:09:03.267Z,0
2019-01-21T00:10:05.287Z,0
2019-01-21T00:11:07.592Z,0
2019-01-21T00:12:09.599Z,0
2019-01-21T00:13:12.297Z,0
2019-01-21T00:14:14.884Z,0
2019-01-21T00:15:17.280Z,0
2019-01-21T00:16:19.615Z,0
2019-01-21T00:17:23.998Z,0
2019-01-21T00:18:26.004Z,0
2019-01-21T00:19:28.022Z,0
2019-01-21T00:20:30.090Z,0
2019-01-21T00:21:32.382Z,0
2019-01-21T00:22:34.391Z,0
2019-01-21T00:23:36.405Z,0
2019-01-21T00:24:39.075Z,0
2019-01-21T00:25:41.102Z,0
2019-01-21T00:26:43.110Z,0
2019-01-21T00:27:45.131Z,0
2019-01-21T00:28:47.159Z,0
2019-01-21T00:29:49.440Z,0
2019-01-21T00:30:51.784Z,0
2019-01-21T00:31:53.804Z,0
2019-01-21T00:32:55.805Z,0
2019-01-21T00:33:57.819Z,0
2019-01-21T00:34:59.835Z,0
2019-01-21T00:36:01.854Z,0
2019-01-21T00:37:04.963Z,0
2019-01-21T00:38:07.254Z,0
2019-01-21T00:39:09.278Z,0
2019-01-21T00:40:11.298Z,0
2019-01-21T00:41:13.756Z,0
2019-01-21T00:42:15.759Z,0
2019-01-21T00:43:18.083Z,0
2019-01-21T00:44:20.095Z,0
2019-01-21T00:45:22.105Z,0
2019-01-21T00:46:24.139Z,0
2019-01-21T00:47:31.452Z,0
2019-01-21T00:48:33.462Z,0
2019-01-21T00:49:35.470Z,0
2019-01-21T00:50:37.789Z,0
2019-01-21T00:51:39.810Z,0
2019-01-21T00:52:41.826Z,0
2019-01-21T00:53:43.849Z,0
2019-01-21T00:54:46.131Z,0
2019-01-21T00:55:48.222Z,0
2019-01-21T00:56:50.630Z,0
2019-01-21T00:57:52.651Z,0
2019-01-21T00:58:54.654Z,0
2019-01-21T00:59:56.949Z,0
2019-01-21T01:00:58.963Z,0
2019-01-21T01:02:00.986Z,0
2019-01-21T01:03:02.992Z,0
2019-01-21T01:04:05.008Z,0
2019-01-21T01:05:07.022Z,0
2019-01-21T01:06:09.025Z,0
2019-01-21T01:07:11.041Z,0
2019-01-21T01:08:13.060Z,0
2019-01-21T01:09:15.075Z,0
2019-01-21T01:10:17.096Z,0
2019-01-21T01:11:19.110Z,0
2019-01-21T01:12:21.116Z,0
2019-01-21T01:13:23.517Z,0
2019-01-21T01:14:25.539Z,0
2019-01-21T01:15:27.540Z,0
2019-01-21T01:16:29.575Z,0
2019-01-21T01:17:38.664Z,0
2019-01-21T01:18:40.671Z,0
2019-01-21T01:19:42.746Z,0
2019-01-21T01:20:45.135Z,0
2019-01-21T01:21:47.149Z,0
2019-01-21T01:22:49.151Z,0
2019-01-21T01:23:51.196Z,0
2019-01-21T01:24:53.201Z,0
2019-01-21T01:25:55.211Z,0
2019-01-21T01:26:57.232Z,0
2019-01-21T01:27:59.233Z,0
2019-01-21T01:29:01.280Z,0
2019-01-21T01:30:03.575Z,0
2019-01-21T01:31:05.594Z,0
2019-01-21T01:32:07.594Z,0
2019-01-21T01:33:09.619Z,0
2019-01-21T01:34:11.634Z,0
2019-01-21T01:35:14.206Z,0
2019-01-21T01:36:16.227Z,0
2019-01-21T01:37:18.243Z,0
2019-01-21T01:38:20.257Z,0
2019-01-21T01:39:22.271Z,0
2019-01-21T01:40:24.566Z,0
2019-01-21T01:41:26.604Z,0
2019-01-21T01:42:28.647Z,0
2019-01-21T01:43:30.970Z,0
2019-01-21T01:44:33.023Z,0
2019-01-21T01:45:35.050Z,0
2019-01-21T01:46:37.087Z,0
2019-01-21T01:47:46.515Z,0
2019-01-21T01:48:49.360Z,0
2019-01-21T01:49:51.946Z,0
2019-01-21T01:50:54.279Z,0
2019-01-21T01:51:56.322Z,0
2019-01-21T01:52:58.377Z,0
2019-01-21T01:54:00.401Z,0
2019-01-21T01:55:02.721Z,0
2019-01-21T01:56:04.751Z,0
2019-01-21T01:57:06.814Z,0
2019-01-21T01:58:08.842Z,0
2019-01-21T01:59:10.874Z,0
2019-01-21T02:00:12.928Z,0
2019-01-21T02:01:16.004Z,0
2019-01-21T02:02:18.564Z,0
2019-01-21T02:03:20.601Z,0
2019-01-21T02:04:22.652Z,0
2019-01-21T02:05:24.676Z,0
2019-01-21T02:06:26.715Z,0
2019-01-21T02:07:28.747Z,0
2019-01-21T02:08:30.787Z,0
2019-01-21T02:09:33.254Z,0
2019-01-21T02:10:35.558Z,0
2019-01-21T02:11:37.601Z,0
2019-01-21T02:12:39.681Z,0
2019-01-21T02:13:42.799Z,0
2019-01-21T02:14:45.126Z,0
2019-01-21T02:15:47.541Z,0
2019-01-21T02:16:49.967Z,0
2019-01-21T02:17:53.572Z,0
2019-01-21T02:18:55.622Z,0
2019-01-21T02:19:57.668Z,0
2019-01-21T02:20:59.686Z,0
2019-01-21T02:22:01.729Z,0
2019-01-21T02:23:03.760Z,0
2019-01-21T02:24:06.108Z,0
2019-01-21T02:25:08.202Z,0
2019-01-21T02:26:11.741Z,0
2019-01-21T02:27:14.091Z,0
2019-01-21T02:28:16.134Z,0
2019-01-21T02:29:18.466Z,0
2019-01-21T02:30:20.504Z,0
2019-01-21T02:31:22.839Z,0
2019-01-21T02:32:24.870Z,0
2019-01-21T02:33:26.925Z,0
2019-01-21T02:34:29.022Z,0
2019-01-21T02:35:31.060Z,0
2019-01-21T02:36:33.115Z,0
2019-01-21T02:37:35.808Z,0
2019-01-21T02:38:39.067Z,0
2019-01-21T02:39:41.699Z,0
2019-01-21T02:40:44.069Z,0
2019-01-21T02:41:46.943Z,0
2019-01-21T02:42:48.969Z,0
2019-01-21T02:43:51.445Z,0
2019-01-21T02:44:53.485Z,0
2019-01-21T02:45:55.537Z,0
2019-01-21T02:46:57.984Z,0
2019-01-21T02:48:01.591Z,0
2019-01-21T02:49:03.928Z,0
2019-01-21T02:50:05.985Z,0
2019-01-21T02:51:08.684Z,0
2019-01-21T02:52:11.967Z,0
2019-01-21T02:53:14.383Z,0
2019-01-21T02:54:16.417Z,0
2019-01-21T02:55:18.467Z,0
2019-01-21T02:56:20.772Z,0
2019-01-21T02:57:22.808Z,0
2019-01-21T02:58:24.862Z,0
2019-01-21T02:59:26.889Z,0
2019-01-21T03:00:29.227Z,0
2019-01-21T03:01:31.273Z,0
2019-01-21T03:02:33.332Z,0
2019-01-21T03:03:35.805Z,0
2019-01-21T03:04:39.231Z,0
2019-01-21T03:05:41.429Z,0
2019-01-21T03:06:43.470Z,0
2019-01-21T03:07:46.262Z,0
2019-01-21T03:08:48.295Z,0
2019-01-21T03:09:51.289Z,0
2019-01-21T03:10:54.093Z,0
2019-01-21T03:11:56.469Z,0
2019-01-21T03:12:58.524Z,0
2019-01-21T03:14:00.556Z,0
2019-01-21T03:15:02.621Z,0
2019-01-21T03:16:04.648Z,0
2019-01-21T03:17:07.947Z,0
2019-01-21T03:18:10.247Z,0
2019-01-21T03:19:12.272Z,0
2019-01-21T03:20:14.311Z,0
2019-01-21T03:21:16.353Z,0
2019-01-21T03:22:18.768Z,0
2019-01-21T03:23:20.808Z,0
2019-01-21T03:24:22.836Z,0
2019-01-21T03:25:25.160Z,0
2019-01-21T03:26:27.204Z,0
2019-01-21T03:27:29.871Z,0
2019-01-21T03:28:31.909Z,0
2019-01-21T03:29:35.046Z,0
2019-01-21T03:30:38.325Z,0
2019-01-21T03:31:40.680Z,0
2019-01-21T03:32:43.682Z,0
2019-01-21T03:33:46.059Z,0
2019-01-21T03:34:48.788Z,0
2019-01-21T03:35:50.866Z,0
2019-01-21T03:36:53.607Z,0
2019-01-21T03:37:55.701Z,0
2019-01-21T03:38:58.077Z,0
2019-01-21T03:40:00.363Z,0
2019-01-21T03:41:02.485Z,0
2019-01-21T03:42:05.410Z,0
2019-01-21T03:43:07.859Z,0
2019-01-21T03:44:09.924Z,0
2019-01-21T03:45:11.994Z,0
2019-01-21T03:46:14.345Z,0
2019-01-21T03:47:16.662Z,0
2019-01-21T03:48:19.017Z,0
2019-01-21T03:49:21.432Z,0
2019-01-21T03:50:23.493Z,0
2019-01-21T03:51:25.538Z,0
2019-01-21T03:52:27.618Z,0
2019-01-21T03:53:29.657Z,0
2019-01-21T03:54:32.942Z,0
2019-01-21T03:55:35.664Z,0
2019-01-21T03:56:37.713Z,0
2019-01-21T03:57:39.748Z,0
2019-01-21T03:58:41.767Z,0
2019-01-21T03:59:44.111Z,0
2019-01-21T04:00:46.164Z,0
2019-01-21T04:01:48.188Z,0
2019-01-21T04:02:50.564Z,0
2019-01-21T04:03:52.895Z,0
2019-01-21T04:04:54.937Z,0
2019-01-21T04:05:57.288Z,0
2019-01-21T04:07:00.255Z,0
2019-01-21T04:08:02.484Z,0
2019-01-21T04:09:04.519Z,0
2019-01-21T04:10:06.567Z,0
2019-01-21T04:11:08.614Z,0
2019-01-21T04:12:10.709Z,0
2019-01-21T04:13:12.746Z,0
2019-01-21T04:14:14.847Z,0
2019-01-21T04:15:17.280Z,0
2019-01-21T04:16:19.346Z,0
2019-01-21T04:17:21.382Z,0
2019-01-21T04:18:25.938Z,0
2019-01-21T04:19:29.198Z,0
2019-01-21T04:20:33.974Z,0
2019-01-21T04:21:36.185Z,0
2019-01-21T04:22:38.221Z,0
2019-01-21T04:23:40.283Z,0
2019-01-21T04:24:42.322Z,0
2019-01-21T04:25:44.725Z,0
2019-01-21T04:26:46.779Z,0
2019-01-21T04:27:48.825Z,0
2019-01-21T04:28:51.152Z,0
2019-01-21T04:29:53.495Z,0
2019-01-21T04:30:56.237Z,0
2019-01-21T04:31:59.083Z,0
2019-01-21T04:33:01.549Z,0
2019-01-21T04:34:04.407Z,0
2019-01-21T04:35:06.444Z,0
2019-01-21T04:36:08.796Z,0
2019-01-21T04:37:11.140Z,0
2019-01-21T04:38:13.472Z,0
2019-01-21T04:39:15.511Z,0
2019-01-21T04:40:17.551Z,0
2019-01-21T04:41:19.636Z,0
2019-01-21T04:42:21.676Z,0
2019-01-21T04:43:23.751Z,0
2019-01-21T04:44:26.953Z,0
2019-01-21T04:45:29.263Z,0
2019-01-21T04:46:32.191Z,0
2019-01-21T04:47:34.209Z,0
2019-01-21T04:48:36.263Z,0
2019-01-21T04:49:38.603Z,0
2019-01-21T04:50:40.954Z,0
2019-01-21T04:51:43.349Z,0
2019-01-21T04:52:45.410Z,0
2019-01-21T04:53:47.465Z,0
2019-01-21T04:54:50.181Z,0
2019-01-21T04:55:52.554Z,0
2019-01-21T04:56:55.300Z,0
2019-01-21T04:57:57.786Z,0
2019-01-21T04:59:00.396Z,0
2019-01-21T05:00:02.456Z,0
2019-01-21T05:01:04.793Z,0
2019-01-21T05:02:06.878Z,0
2019-01-21T05:03:08.936Z,0
2019-01-21T05:04:10.985Z,0
2019-01-21T05:05:13.054Z,0
2019-01-21T05:06:15.093Z,0
2019-01-21T05:07:17.150Z,0
2019-01-21T05:08:19.490Z,0
2019-01-21T05:09:23.073Z,0
2019-01-21T05:10:25.832Z,0
2019-01-21T05:11:27.877Z,0
2019-01-21T05:12:29.903Z,0
2019-01-21T05:13:32.232Z,0
2019-01-21T05:14:34.273Z,0
2019-01-21T05:15:36.330Z,0
2019-01-21T05:16:38.644Z,0
2019-01-21T05:17:41.113Z,0
2019-01-21T05:18:43.184Z,0
2019-01-21T05:19:45.502Z,0
2019-01-21T05:20:48.242Z,0
2019-01-21T05:21:51.522Z,0
2019-01-21T05:22:53.876Z,0
2019-01-21T05:23:56.200Z,0
2019-01-21T05:24:58.253Z,0
2019-01-21T05:26:00.589Z,0
2019-01-21T05:27:02.905Z,0
2019-01-21T05:28:04.963Z,0
2019-01-21T05:29:07.019Z,0
2019-01-21T05:30:09.328Z,0
2019-01-21T05:31:11.387Z,0
2019-01-21T05:32:13.441Z,0
2019-01-21T05:33:16.400Z,0
2019-01-21T05:34:18.592Z,0
2019-01-21T05:35:20.644Z,0
2019-01-21T05:36:24.546Z,0
2019-01-21T05:37:26.587Z,0
2019-01-21T05:38:28.624Z,0
2019-01-21T05:39:30.918Z,0
2019-01-21T05:40:32.931Z,0
2019-01-21T05:41:34.983Z,0
2019-01-21T05:42:37.011Z,0
2019-01-21T05:43:39.025Z,0
2019-01-21T05:44:41.055Z,0
2019-01-21T05:45:43.059Z,0
2019-01-21T05:46:45.106Z,0
2019-01-21T05:47:47.410Z,0
2019-01-21T05:48:50.741Z,0
2019-01-21T05:49:52.748Z,0
2019-01-21T05:50:54.827Z,0
2019-01-21T05:51:56.858Z,0
2019-01-21T05:52:59.266Z,0
2019-01-21T05:54:01.971Z,0
2019-01-21T05:55:04.289Z,0
2019-01-21T05:56:06.323Z,0
2019-01-21T05:57:08.340Z,0
2019-01-21T05:58:10.646Z,0
2019-01-21T05:59:12.950Z,0
2019-01-21T06:00:15.253Z,0
2019-01-21T06:01:17.948Z,0
2019-01-21T06:02:20.237Z,0
2019-01-21T06:03:22.263Z,0
2019-01-21T06:04:24.568Z,0
2019-01-21T06:05:26.575Z,0
2019-01-21T06:06:28.592Z,0
2019-01-21T06:07:30.614Z,0
2019-01-21T06:08:32.909Z,0
2019-01-21T06:09:34.924Z,0
2019-01-21T06:10:36.944Z,0
2019-01-21T06:11:38.962Z,0
2019-01-21T06:12:41.362Z,0
2019-01-21T06:13:43.389Z,0
2019-01-21T06:14:45.682Z,0
2019-01-21T06:15:47.701Z,0
2019-01-21T06:16:49.711Z,0
2019-01-21T06:17:52.003Z,0
2019-01-21T06:18:58.775Z,0
2019-01-21T06:20:00.798Z,0
2019-01-21T06:21:03.117Z,0
2019-01-21T06:22:05.151Z,0
2019-01-21T06:23:07.484Z,0
2019-01-21T06:24:09.501Z,0
2019-01-21T06:25:11.911Z,0
2019-01-21T06:26:14.213Z,0
2019-01-21T06:27:16.498Z,0
2019-01-21T06:28:18.519Z,0
2019-01-21T06:29:20.533Z,0
2019-01-21T06:30:22.550Z,0
2019-01-21T06:31:24.552Z,0
2019-01-21T06:32:26.582Z,0
2019-01-21T06:33:28.650Z,0
2019-01-21T06:34:30.666Z,0
2019-01-21T06:35:32.697Z,0
2019-01-21T06:36:34.986Z,0
2019-01-21T06:37:37.006Z,0
2019-01-21T06:38:39.029Z,0
2019-01-21T06:39:41.051Z,0
2019-01-21T06:40:43.063Z,0
2019-01-21T06:41:45.362Z,0
2019-01-21T06:42:47.388Z,0
2019-01-21T06:43:49.404Z,0
2019-01-21T06:44:51.414Z,0
2019-01-21T06:45:53.436Z,0
2019-01-21T06:46:55.744Z,0
2019-01-21T06:47:57.747Z,0
2019-01-21T06:49:06.432Z,0
2019-01-21T06:50:09.860Z,0
2019-01-21T06:51:11.870Z,0
2019-01-21T06:52:14.198Z,0
2019-01-21T06:53:16.207Z,0
2019-01-21T06:54:18.227Z,0
2019-01-21T06:55:20.238Z,0
2019-01-21T06:56:22.279Z,0
2019-01-21T06:57:24.297Z,0
2019-01-21T06:58:26.314Z,0
2019-01-21T06:59:28.386Z,0
2019-01-21T07:00:30.389Z,0
2019-01-21T07:01:33.895Z,0
2019-01-21T07:02:36.853Z,0
2019-01-21T07:03:38.873Z,0
2019-01-21T07:04:41.162Z,0
2019-01-21T07:05:43.191Z,0
2019-01-21T07:06:45.207Z,0
2019-01-21T07:07:47.224Z,0
2019-01-21T07:08:49.256Z,0
2019-01-21T07:09:51.265Z,0
2019-01-21T07:10:53.280Z,0
2019-01-21T07:11:55.597Z,0
2019-01-21T07:12:57.906Z,0
2019-01-21T07:13:59.916Z,0
2019-01-21T07:15:01.984Z,0
2019-01-21T07:16:03.994Z,1
2019-01-21T07:17:06.290Z,1
2019-01-21T07:18:08.314Z,1
2019-01-21T07:19:12.370Z,1
2019-01-21T07:20:14.375Z,1
2019-01-21T07:21:16.407Z,1
2019-01-21T07:22:18.710Z,1
2019-01-21T07:23:20.724Z,1
2019-01-21T07:24:23.028Z,1
2019-01-21T07:25:25.030Z,2
2019-01-21T07:26:27.047Z,2
2019-01-21T07:27:29.058Z,2
2019-01-21T07:28:31.364Z,2
2019-01-21T07:29:33.370Z,2
2019-01-21T07:30:35.395Z,2
2019-01-21T07:31:37.702Z,2
2019-01-21T07:32:39.995Z,2
2019-01-21T07:33:42.045Z,3
2019-01-21T07:34:44.048Z,3
2019-01-21T07:35:46.102Z,3
2019-01-21T07:36:48.119Z,3
2019-01-21T07:37:50.154Z,3
2019-01-21T07:38:52.160Z,3
2019-01-21T07:39:54.180Z,4
2019-01-21T07:40:56.198Z,4
2019-01-21T07:41:58.579Z,4
2019-01-21T07:43:01.649Z,4
2019-01-21T07:44:03.944Z,4
2019-01-21T07:45:05.949Z,5
2019-01-21T07:46:07.964Z,5
2019-01-21T07:47:09.981Z,5
2019-01-21T07:48:11.998Z,5
2019-01-21T07:49:19.258Z,5
2019-01-21T07:50:21.840Z,5
2019-01-21T07:51:23.869Z,6
2019-01-21T07:52:25.894Z,6
2019-01-21T07:53:27.928Z,6
2019-01-21T07:54:30.487Z,5
2019-01-21T07:55:32.504Z,6
2019-01-21T07:56:34.914Z,6
2019-01-21T07:57:36.933Z,6
2019-01-21T07:58:38.931Z,7
2019-01-21T07:59:40.956Z,6
2019-01-21T08:00:42.973Z,6
2019-01-21T08:01:45.001Z,7
2019-01-21T08:02:47.000Z,8
2019-01-21T08:03:49.057Z,9
2019-01-21T08:04:51.075Z,9
2019-01-21T08:05:53.088Z,9
2019-01-21T08:06:59.820Z,10
2019-01-21T08:08:01.824Z,10
2019-01-21T08:09:03.841Z,10
2019-01-21T08:10:06.234Z,11
2019-01-21T08:11:08.269Z,10
2019-01-21T08:12:10.277Z,11
2019-01-21T08:13:12.314Z,11
2019-01-21T08:14:14.339Z,10
2019-01-21T08:15:16.347Z,11
2019-01-21T08:16:18.374Z,11
2019-01-21T08:17:20.771Z,11
2019-01-21T08:18:22.774Z,11
2019-01-21T08:19:25.651Z,13
2019-01-21T08:20:27.674Z,13
2019-01-21T08:21:29.974Z,14
2019-01-21T08:22:31.997Z,14
2019-01-21T08:23:34.299Z,13
2019-01-21T08:24:36.304Z,12
2019-01-21T08:25:38.323Z,12
2019-01-21T08:26:40.356Z,13
2019-01-21T08:27:42.367Z,12
2019-01-21T08:28:44.385Z,12
2019-01-21T08:29:46.406Z,13
2019-01-21T08:30:48.431Z,13
2019-01-21T08:31:50.462Z,13
2019-01-21T08:32:52.473Z,13
2019-01-21T08:33:55.393Z,14
2019-01-21T08:34:57.683Z,14
2019-01-21T08:35:59.702Z,14
2019-01-21T08:37:01.723Z,14
2019-01-21T08:38:04.056Z,15
2019-01-21T08:39:06.066Z,15
2019-01-21T08:40:08.094Z,16
2019-01-21T08:41:10.134Z,16
2019-01-21T08:42:12.146Z,16
2019-01-21T08:43:14.457Z,17
2019-01-21T08:44:16.492Z,17
2019-01-21T08:45:18.503Z,17
2019-01-21T08:46:22.761Z,17
2019-01-21T08:47:25.072Z,17
2019-01-21T08:48:27.087Z,17
2019-01-21T08:49:32.059Z,17
2019-01-21T08:50:34.077Z,17
2019-01-21T08:51:36.954Z,18
2019-01-21T08:52:38.981Z,18
2019-01-21T08:53:41.299Z,18
2019-01-21T08:54:43.314Z,19
2019-01-21T08:55:45.336Z,19
2019-01-21T08:56:47.744Z,19
2019-01-21T08:57:50.034Z,19
2019-01-21T08:58:52.048Z,20
2019-01-21T08:59:54.070Z,20
2019-01-21T09:00:56.086Z,21
2019-01-21T09:01:58.106Z,21
2019-01-21T09:03:00.143Z,21
2019-01-21T09:04:02.149Z,21
2019-01-21T09:05:04.181Z,21
2019-01-21T09:06:06.581Z,21
2019-01-21T09:07:08.598Z,21
2019-01-21T09:08:10.603Z,22
2019-01-21T09:09:12.641Z,22
2019-01-21T09:10:14.656Z,22
2019-01-21T09:11:16.674Z,23
2019-01-21T09:12:18.702Z,23
2019-01-21T09:13:20.721Z,23
2019-01-21T09:14:22.730Z,24
2019-01-21T09:15:24.741Z,24
2019-01-21T09:16:26.755Z,25
2019-01-21T09:17:28.815Z,26
2019-01-21T09:18:30.819Z,26
2019-01-21T09:19:38.772Z,27
2019-01-21T09:20:41.077Z,26
2019-01-21T09:21:43.363Z,26
2019-01-21T09:22:45.395Z,26
2019-01-21T09:23:47.694Z,26
2019-01-21T09:24:49.700Z,26
2019-01-21T09:25:51.993Z,25
2019-01-21T09:26:54.027Z,25
2019-01-21T09:27:56.326Z,25
2019-01-21T09:28:58.351Z,25
2019-01-21T09:30:00.442Z,25
2019-01-21T09:31:02.795Z,25
2019-01-21T09:32:05.093Z,26
2019-01-21T09:33:07.126Z,26
2019-01-21T09:34:09.137Z,26
2019-01-21T09:35:11.451Z,26
2019-01-21T09:36:13.502Z,26
2019-01-21T09:37:15.516Z,26
2019-01-21T09:38:17.549Z,26
2019-01-21T09:39:19.841Z,26
2019-01-21T09:40:21.860Z,26
2019-01-21T09:41:23.870Z,27
2019-01-21T09:42:25.906Z,28
2019-01-21T09:43:27.937Z,28
2019-01-21T09:44:29.959Z,28
2019-01-21T09:45:33.319Z,28
2019-01-21T09:46:35.361Z,28
2019-01-21T09:47:37.774Z,28
2019-01-21T09:48:40.178Z,27
2019-01-21T09:49:45.383Z,27
2019-01-21T09:50:47.393Z,26
2019-01-21T09:51:49.417Z,26
2019-01-21T09:52:51.720Z,26
2019-01-21T09:53:54.007Z,26
2019-01-21T09:54:56.037Z,27
2019-01-21T09:55:58.324Z,27
2019-01-21T09:57:00.349Z,29
2019-01-21T09:58:02.394Z,28
2019-01-21T09:59:04.420Z,29
2019-01-21T10:00:06.748Z,30
2019-01-21T10:01:09.048Z,31
2019-01-21T10:02:11.152Z,31
2019-01-21T10:03:13.175Z,31
2019-01-21T10:04:15.206Z,31
2019-01-21T10:05:17.233Z,31
2019-01-21T10:06:19.624Z,31
2019-01-21T10:07:21.651Z,31
2019-01-21T10:08:23.953Z,31
2019-01-21T10:09:25.976Z,31
2019-01-21T10:10:29.420Z,31
2019-01-21T10:11:31.427Z,31
2019-01-21T10:12:34.157Z,31
2019-01-21T10:13:36.179Z,31
2019-01-21T10:14:38.222Z,32
2019-01-21T10:15:40.227Z,32
2019-01-21T10:16:42.247Z,32
2019-01-21T10:17:44.266Z,32
2019-01-21T10:18:46.279Z,32
2019-01-21T10:19:53.264Z,31
2019-01-21T10:20:55.665Z,31
2019-01-21T10:21:57.974Z,30
2019-01-21T10:22:59.985Z,30
2019-01-21T10:24:02.308Z,30
2019-01-21T10:25:04.322Z,30
2019-01-21T10:26:06.371Z,29
2019-01-21T10:27:08.394Z,28
2019-01-21T10:28:10.682Z,27
2019-01-21T10:29:12.702Z,27
2019-01-21T10:30:14.726Z,28
2019-01-21T10:31:16.752Z,28
2019-01-21T10:32:18.774Z,29
2019-01-21T10:33:21.207Z,31
2019-01-21T10:34:25.112Z,32
2019-01-21T10:35:27.124Z,33
2019-01-21T10:36:29.144Z,35
2019-01-21T10:37:31.179Z,36
2019-01-21T10:38:33.198Z,37
2019-01-21T10:39:35.208Z,38
2019-01-21T10:40:37.545Z,39
2019-01-21T10:41:39.557Z,41
2019-01-21T10:42:41.576Z,42
2019-01-21T10:43:43.598Z,43
2019-01-21T10:44:45.889Z,43
2019-01-21T10:45:47.918Z,42
2019-01-21T10:46:49.946Z,41
2019-01-21T10:47:52.262Z,42
2019-01-21T10:48:54.265Z,41
2019-01-21T10:49:58.817Z,41
2019-01-21T10:51:00.887Z,41
2019-01-21T10:52:02.900Z,40
2019-01-21T10:53:04.932Z,40
2019-01-21T10:54:06.948Z,40
2019-01-21T10:55:08.962Z,40
2019-01-21T10:56:10.977Z,40
2019-01-21T10:57:13.288Z,41
2019-01-21T10:58:15.303Z,41
2019-01-21T10:59:17.599Z,40
2019-01-21T11:00:19.633Z,39
2019-01-21T11:01:22.199Z,39
2019-01-21T11:02:24.231Z,38
2019-01-21T11:03:26.291Z,37
2019-01-21T11:04:28.297Z,37
2019-01-21T11:05:30.316Z,37
2019-01-21T11:06:32.338Z,37
2019-01-21T11:07:34.361Z,37
2019-01-21T11:08:36.372Z,37
2019-01-21T11:09:38.388Z,37
2019-01-21T11:10:40.422Z,36
2019-01-21T11:11:42.439Z,35
2019-01-21T11:12:44.836Z,35
2019-01-21T11:13:46.887Z,33
2019-01-21T11:14:48.906Z,32
2019-01-21T11:15:50.930Z,30
2019-01-21T11:16:52.953Z,28
2019-01-21T11:17:54.960Z,27
2019-01-21T11:18:56.981Z,26
2019-01-21T11:20:05.524Z,26
2019-01-21T11:21:07.838Z,26
2019-01-21T11:22:09.847Z,27
2019-01-21T11:23:11.890Z,28
2019-01-21T11:24:15.013Z,29
2019-01-21T11:25:17.681Z,30
2019-01-21T11:26:19.725Z,30
2019-01-21T11:27:21.739Z,30
2019-01-21T11:28:23.759Z,30
2019-01-21T11:29:25.814Z,30
2019-01-21T11:30:28.228Z,30
2019-01-21T11:31:30.244Z,30
2019-01-21T11:32:32.269Z,31
2019-01-21T11:33:34.685Z,31
2019-01-21T11:34:36.688Z,31
2019-01-21T11:35:38.721Z,32
2019-01-21T11:36:40.737Z,33
2019-01-21T11:37:42.744Z,33
2019-01-21T11:38:44.764Z,34
2019-01-21T11:39:47.082Z,34
2019-01-21T11:40:49.100Z,34
2019-01-21T11:41:51.124Z,32
2019-01-21T11:42:53.419Z,31
2019-01-21T11:43:55.429Z,30
2019-01-21T11:44:57.452Z,30
2019-01-21T11:45:59.749Z,30
2019-01-21T11:47:01.789Z,28
2019-01-21T11:48:03.816Z,26
2019-01-21T11:49:05.842Z,25
2019-01-21T11:50:11.917Z,23
2019-01-21T11:51:13.923Z,23
2019-01-21T11:52:18.903Z,25
2019-01-21T11:53:21.308Z,28
2019-01-21T11:54:23.336Z,29
2019-01-21T11:55:25.347Z,29
2019-01-21T11:56:27.372Z,29
2019-01-21T11:57:29.400Z,29
2019-01-21T11:58:31.419Z,27
2019-01-21T11:59:33.738Z,26
2019-01-21T12:00:35.749Z,25
2019-01-21T12:01:37.771Z,23
2019-01-21T12:02:39.801Z,21
2019-01-21T12:03:41.847Z,18
2019-01-21T12:04:43.874Z,14
2019-01-21T12:05:46.471Z,13
2019-01-21T12:06:48.879Z,11
2019-01-21T12:07:50.889Z,9
2019-01-21T12:08:52.916Z,9
2019-01-21T12:09:54.940Z,7
2019-01-21T12:10:57.238Z,8
2019-01-21T12:11:59.260Z,7
2019-01-21T12:13:01.284Z,8
2019-01-21T12:14:03.300Z,10
2019-01-21T12:15:05.344Z,12
2019-01-21T12:16:07.527Z,13
2019-01-21T12:17:09.546Z,13
2019-01-21T12:18:11.578Z,13
2019-01-21T12:19:13.607Z,12
2019-01-21T12:20:18.523Z,12
2019-01-21T12:21:20.828Z,12
2019-01-21T12:22:22.852Z,11
2019-01-21T12:23:26.278Z,11
2019-01-21T12:24:28.373Z,11
2019-01-21T12:25:30.386Z,11
2019-01-21T12:26:32.404Z,11
2019-01-21T12:27:34.802Z,11
2019-01-21T12:28:36.832Z,11
2019-01-21T12:29:38.891Z,12
2019-01-21T12:30:40.907Z,13
2019-01-21T12:31:42.930Z,15
2019-01-21T12:32:44.938Z,15
2019-01-21T12:33:47.578Z,15
2019-01-21T12:34:49.596Z,15
2019-01-21T12:35:51.623Z,15
2019-01-21T12:36:53.624Z,15
2019-01-21T12:37:55.656Z,15
2019-01-21T12:38:57.677Z,16
2019-01-21T12:39:59.691Z,17
2019-01-21T12:41:01.753Z,17
2019-01-21T12:42:03.805Z,16
2019-01-21T12:43:05.847Z,15
2019-01-21T12:44:07.874Z,14
2019-01-21T12:45:09.896Z,14
2019-01-21T12:46:11.911Z,14
2019-01-21T12:47:13.932Z,14
2019-01-21T12:48:15.947Z,14
2019-01-21T12:49:17.969Z,14
2019-01-21T12:50:25.342Z,14
2019-01-21T12:51:27.362Z,16
2019-01-21T12:52:29.365Z,18
2019-01-21T12:53:31.683Z,20
2019-01-21T12:54:33.697Z,21
2019-01-21T12:55:35.721Z,21
2019-01-21T12:56:38.164Z,20
2019-01-21T12:57:40.177Z,19
2019-01-21T12:58:42.203Z,18
2019-01-21T12:59:44.223Z,17
2019-01-21T13:00:46.537Z,16
2019-01-21T13:01:48.579Z,15
2019-01-21T13:02:50.601Z,14
2019-01-21T13:03:52.633Z,15
2019-01-21T13:04:54.655Z,15
2019-01-21T13:05:56.656Z,14
2019-01-21T13:06:58.687Z,15
2019-01-21T13:08:00.991Z,16
2019-01-21T13:09:03.034Z,16
2019-01-21T13:10:05.046Z,15
2019-01-21T13:11:07.430Z,16
2019-01-21T13:12:09.852Z,17
2019-01-21T13:13:11.867Z,18
2019-01-21T13:14:13.896Z,17
2019-01-21T13:15:16.183Z,16
2019-01-21T13:16:18.201Z,16
2019-01-21T13:17:20.516Z,15
2019-01-21T13:18:22.816Z,14
2019-01-21T13:19:24.836Z,14
2019-01-21T13:20:32.227Z,14
2019-01-21T13:21:36.024Z,13
2019-01-21T13:22:38.043Z,13
2019-01-21T13:23:40.358Z,12
2019-01-21T13:24:42.383Z,12
2019-01-21T13:25:44.395Z,12
2019-01-21T13:26:46.424Z,12
2019-01-21T13:27:48.440Z,12
2019-01-21T13:28:50.469Z,12
2019-01-21T13:29:52.495Z,12
2019-01-21T13:30:54.502Z,13
2019-01-21T13:31:56.527Z,15
2019-01-21T13:32:58.551Z,16
2019-01-21T13:34:00.584Z,16
2019-01-21T13:35:02.940Z,16
2019-01-21T13:36:04.966Z,16
2019-01-21T13:37:06.982Z,16
2019-01-21T13:38:09.488Z,16
2019-01-21T13:39:11.510Z,17
2019-01-21T13:40:13.542Z,17
2019-01-21T13:41:15.560Z,16
2019-01-21T13:42:17.595Z,16
2019-01-21T13:43:19.600Z,16
2019-01-21T13:44:23.004Z,13
2019-01-21T13:45:25.020Z,14
2019-01-21T13:46:27.078Z,16
2019-01-21T13:47:29.112Z,16
2019-01-21T13:48:31.118Z,16
2019-01-21T13:49:33.519Z,16
2019-01-21T13:50:38.515Z,16
2019-01-21T13:51:40.541Z,18
2019-01-21T13:52:42.558Z,17
2019-01-21T13:53:44.596Z,15
2019-01-21T13:54:46.610Z,12
2019-01-21T13:55:48.632Z,11
2019-01-21T13:56:50.656Z,13
2019-01-21T13:57:52.676Z,13
2019-01-21T13:58:55.004Z,11
2019-01-21T13:59:57.030Z,11
2019-01-21T14:00:59.347Z,10
2019-01-21T14:02:01.660Z,10
2019-01-21T14:03:03.739Z,10
2019-01-21T14:04:05.750Z,11
2019-01-21T14:05:08.069Z,12
2019-01-21T14:06:10.082Z,11
2019-01-21T14:07:12.147Z,11
2019-01-21T14:08:14.155Z,11
2019-01-21T14:09:16.184Z,11
2019-01-21T14:10:18.207Z,12
2019-01-21T14:11:20.514Z,12
2019-01-21T14:12:22.975Z,11
2019-01-21T14:13:27.788Z,11
2019-01-21T14:14:29.810Z,12
2019-01-21T14:15:31.826Z,12
2019-01-21T14:16:34.153Z,13
2019-01-21T14:17:36.450Z,15
2019-01-21T14:18:38.470Z,15
2019-01-21T14:19:40.493Z,15
2019-01-21T14:20:44.989Z,14
2019-01-21T14:21:46.995Z,13
2019-01-21T14:22:49.016Z,13
2019-01-21T14:23:51.046Z,14
2019-01-21T14:24:53.066Z,14
2019-01-21T14:25:55.087Z,14
2019-01-21T14:26:57.392Z,15
2019-01-21T14:27:59.419Z,14
2019-01-21T14:29:01.439Z,13
2019-01-21T14:30:03.492Z,13
2019-01-21T14:31:05.513Z,15
2019-01-21T14:32:07.844Z,15
2019-01-21T14:33:09.873Z,16
2019-01-21T14:34:11.908Z,15
2019-01-21T14:35:14.204Z,16
2019-01-21T14:36:16.231Z,14
2019-01-21T14:37:18.264Z,13
2019-01-21T14:38:20.296Z,14
2019-01-21T14:39:22.313Z,13
2019-01-21T14:40:24.732Z,12
2019-01-21T14:41:27.123Z,12
2019-01-21T14:42:29.148Z,13
2019-01-21T14:43:31.167Z,13
2019-01-21T14:44:33.186Z,13
2019-01-21T14:45:35.500Z,12
2019-01-21T14:46:37.506Z,13
2019-01-21T14:47:39.580Z,13
2019-01-21T14:48:41.801Z,12
2019-01-21T14:49:44.168Z,11
2019-01-21T14:50:52.092Z,10
2019-01-21T14:51:54.802Z,11
2019-01-21T14:52:57.216Z,10
2019-01-21T14:53:59.596Z,10
2019-01-21T14:55:02.674Z,10
2019-01-21T14:56:05.096Z,9
2019-01-21T14:57:07.153Z,10
2019-01-21T14:58:09.554Z,9
2019-01-21T14:59:12.088Z,8
2019-01-21T15:00:14.889Z,8
2019-01-21T15:01:17.340Z,8
2019-01-21T15:02:19.550Z,7
2019-01-21T15:03:21.783Z,6
2019-01-21T15:04:24.232Z,6
2019-01-21T15:05:27.090Z,6
2019-01-21T15:06:29.734Z,6